Time;durP1;ratioP1;P1;durP2;ratioP2;P2;SDS_P1;SDS_P2;PMS_P1;PMS_P2;Temp;Humidity;BMP_temperature;BMP_pressure;BME280_temperature;BME280_humidity;BME280_pressure;Samples;Min_cycle;Max_cycle;Signal;HPM_P1;HPM_P2
2021/09/06 00:01:14;;;;;;;8.40;5.28;;;;;;;8.04;73.98;102491.75;1788468;80;20979;-83
2021/09/06 00:03:41;;;;;;;10.80;6.10;;;;;;;8.03;74.01;102491.66;1788507;80;21184;-83
2021/09/06 00:06:08;;;;;;;8.23;5.30;;;;;;;8.03;74.10;102495.17;1788305;79;21030;-83
2021/09/06 00:08:34;;;;;;;12.40;5.80;;;;;;;8.02;74.14;102494.69;1788631;79;21010;-83
2021/09/06 00:11:06;;;;;;;11.45;5.03;;;;;;;8.01;74.12;102489.34;1788458;80;21088;-83
2021/09/06 00:13:32;;;;;;;10.63;6.22;;;;;;;7.99;74.18;102489.23;1788839;80;21045;-83
2021/09/06 00:15:59;;;;;;;9.15;5.17;;;;;;;7.97;74.20;102495.69;1788523;80;21737;-83
2021/09/06 00:18:26;;;;;;;9.05;4.97;;;;;;;7.95;74.16;102493.80;1788539;80;21022;-83
2021/09/06 00:21:01;;;;;;;11.00;5.97;;;;;;;7.93;74.17;102492.79;1788116;80;21088;-83
2021/09/06 00:23:27;;;;;;;13.45;6.45;;;;;;;7.90;74.22;102485.65;1788392;80;21002;-83
2021/09/06 00:25:54;;;;;;;10.78;5.65;;;;;;;7.88;74.25;102488.58;1788945;80;21045;-85
2021/09/06 00:28:21;;;;;;;10.45;5.45;;;;;;;7.87;74.26;102488.48;1788900;80;21740;-84
2021/09/06 00:30:47;;;;;;;9.40;5.30;;;;;;;7.83;74.30;102487.75;1788897;80;20998;-86
2021/09/06 00:33:14;;;;;;;11.22;5.67;;;;;;;7.79;74.30;102486.67;1789318;80;21023;-86
2021/09/06 00:35:41;;;;;;;11.50;5.85;;;;;;;7.75;74.31;102486.88;1788933;80;21629;-86
2021/09/06 00:38:07;;;;;;;9.83;5.42;;;;;;;7.71;74.32;102487.87;1788956;80;21134;-86
2021/09/06 00:40:34;;;;;;;9.08;6.10;;;;;;;7.67;74.44;102487.19;1789085;80;21725;-86
2021/09/06 00:43:00;;;;;;;11.28;5.60;;;;;;;7.66;74.55;102491.91;1788222;80;21515;-86
2021/09/06 00:45:27;;;;;;;11.68;6.87;;;;;;;7.64;74.48;102491.84;1788621;79;21013;-85
2021/09/06 00:47:54;;;;;;;14.25;7.87;;;;;;;7.59;74.36;102489.31;1788904;79;21072;-85
2021/09/06 00:50:20;;;;;;;13.20;7.05;;;;;;;7.56;74.24;102498.27;1788876;80;21013;-85
2021/09/06 00:52:47;;;;;;;16.37;8.63;;;;;;;7.53;74.26;102494.16;1788783;80;21744;-86
2021/09/06 00:55:15;;;;;;;14.98;7.72;;;;;;;7.49;74.25;102493.43;1788930;80;21073;-85
2021/09/06 00:57:42;;;;;;;15.15;8.23;;;;;;;7.44;74.36;102490.52;1756472;80;21049;-82
2021/09/06 01:00:10;;;;;;;14.55;7.20;;;;;;;7.40;74.42;102501.20;1787989;80;21689;-82
2021/09/06 01:02:37;;;;;;;9.25;5.55;;;;;;;7.39;74.50;102502.03;1788298;80;21108;-83
2021/09/06 01:05:05;;;;;;;7.35;4.92;;;;;;;7.38;74.59;102501.51;1788249;80;22346;-83
2021/09/06 01:07:31;;;;;;;8.53;5.03;;;;;;;7.35;74.63;102498.67;1788296;80;21014;-83
2021/09/06 01:10:10;;;;;;;8.20;5.05;;;;;;;7.33;74.69;102500.70;1788458;80;21019;-86
2021/09/06 01:12:37;;;;;;;9.30;5.62;;;;;;;7.31;74.79;102497.97;1788796;80;21038;-85
2021/09/06 01:15:04;;;;;;;7.20;5.08;;;;;;;7.28;74.79;102497.80;1788836;78;21594;-83
2021/09/06 01:17:31;;;;;;;7.33;4.72;;;;;;;7.25;74.75;102491.44;1788889;80;21784;-85
2021/09/06 01:19:58;;;;;;;8.43;4.87;;;;;;;7.22;74.87;102497.36;1788711;80;21089;-81
2021/09/06 01:22:25;;;;;;;10.30;5.40;;;;;;;7.19;74.88;102499.38;1788167;80;21152;-82
2021/09/06 01:24:51;;;;;;;8.15;5.28;;;;;;;7.17;74.96;102498.38;1788224;79;21479;-81
2021/09/06 01:27:18;;;;;;;12.05;5.55;;;;;;;7.15;74.92;102497.75;1788442;80;21064;-81
2021/09/06 01:29:45;;;;;;;12.00;5.92;;;;;;;7.11;74.91;102490.09;1788347;80;21741;-81
2021/09/06 01:32:11;;;;;;;11.38;5.62;;;;;;;7.08;74.90;102494.24;1788264;80;21026;-82
2021/09/06 01:34:38;;;;;;;8.65;5.33;;;;;;;7.07;75.06;102497.66;1788219;80;21049;-81
2021/09/06 01:37:05;;;;;;;7.62;5.00;;;;;;;7.04;75.00;102493.12;1787965;80;21034;-81
2021/09/06 01:39:31;;;;;;;8.18;5.45;;;;;;;7.03;75.03;102499.15;1788159;80;21014;-81
2021/09/06 01:41:59;;;;;;;11.12;5.95;;;;;;;6.98;75.04;102499.23;1788199;80;21723;-81
2021/09/06 01:44:26;;;;;;;7.80;4.92;;;;;;;6.97;75.11;102497.44;1787976;80;21049;-82
2021/09/06 01:46:52;;;;;;;12.60;5.65;;;;;;;6.95;75.18;102495.13;1787920;79;21037;-82
2021/09/06 01:49:19;;;;;;;12.82;5.40;;;;;;;6.95;75.25;102493.81;1788089;79;22515;-82
2021/09/06 01:51:46;;;;;;;11.83;5.50;;;;;;;6.93;75.31;102499.34;1788075;80;21522;-85
2021/09/06 01:54:12;;;;;;;10.20;5.72;;;;;;;6.92;75.39;102506.27;1788005;80;22342;-84
2021/09/06 01:56:39;;;;;;;10.75;5.28;;;;;;;6.91;75.40;102503.16;1787860;80;21331;-84
2021/09/06 01:59:06;;;;;;;15.40;5.50;;;;;;;6.89;75.38;102498.61;1787797;80;21531;-85
2021/09/06 02:01:32;;;;;;;12.18;5.15;;;;;;;6.88;75.49;102498.13;1787931;80;21002;-85
2021/09/06 02:03:59;;;;;;;6.42;4.65;;;;;;;6.88;75.57;102502.05;1788549;80;20998;-85
2021/09/06 02:06:26;;;;;;;8.73;5.45;;;;;;;6.88;75.59;102500.33;1788479;80;21742;-84
2021/09/06 02:08:52;;;;;;;7.83;4.95;;;;;;;6.88;75.65;102499.02;1787940;80;21503;-82
2021/09/06 02:11:19;;;;;;;6.62;4.55;;;;;;;6.87;75.63;102504.14;1788089;80;21124;-82
2021/09/06 02:13:46;;;;;;;10.03;5.70;;;;;;;6.84;75.64;102501.34;1788038;80;21074;-82
2021/09/06 02:16:12;;;;;;;10.55;5.12;;;;;;;6.84;75.72;102501.34;1788245;80;21547;-82
2021/09/06 02:18:39;;;;;;;9.45;5.35;;;;;;;6.83;75.80;102499.51;1788164;80;21737;-81
2021/09/06 02:21:06;;;;;;;13.30;5.12;;;;;;;6.82;75.85;102495.99;1787802;80;21526;-81
2021/09/06 02:23:33;;;;;;;9.98;5.08;;;;;;;6.83;75.86;102494.27;1787860;80;21067;-82
2021/09/06 02:25:59;;;;;;;8.83;4.92;;;;;;;6.82;75.88;102494.69;1788101;80;21034;-82
2021/09/06 02:28:26;;;;;;;10.65;5.35;;;;;;;6.79;75.82;102495.39;1788140;80;21033;-82
2021/09/06 02:30:53;;;;;;;8.60;5.30;;;;;;;6.77;75.93;102491.73;1788163;80;22388;-82
2021/09/06 02:33:19;;;;;;;10.60;5.65;;;;;;;6.77;75.94;102500.00;1788091;78;21063;-81
2021/09/06 02:35:46;;;;;;;8.30;5.08;;;;;;;6.76;76.05;102492.55;1788106;80;21327;-82
2021/09/06 02:38:13;;;;;;;9.58;5.65;;;;;;;6.76;76.04;102497.80;1788117;80;20995;-81
2021/09/06 02:40:39;;;;;;;9.00;5.80;;;;;;;6.74;76.03;102490.23;1788164;80;21033;-81
2021/09/06 02:43:07;;;;;;;9.43;5.22;;;;;;;6.73;76.10;102491.03;1787979;80;21773;-83
2021/09/06 02:45:34;;;;;;;8.85;5.53;;;;;;;6.73;76.15;102488.81;1788408;80;20979;-83
2021/09/06 02:48:01;;;;;;;8.08;5.17;;;;;;;6.71;76.15;102490.02;1757457;80;33787;-83
2021/09/06 02:50:28;;;;;;;7.62;4.87;;;;;;;6.72;76.23;102488.30;1788353;80;21041;-84
2021/09/06 02:52:55;;;;;;;11.25;5.35;;;;;;;6.71;76.17;102490.02;1788393;80;21037;-83
2021/09/06 02:55:22;;;;;;;9.38;5.25;;;;;;;6.70;76.20;102485.61;1788321;80;21798;-83
2021/09/06 02:57:49;;;;;;;8.43;5.75;;;;;;;6.69;76.21;102489.42;1788059;79;21081;-83
2021/09/06 03:00:17;;;;;;;8.68;5.40;;;;;;;6.68;76.24;102490.20;1788305;80;20990;-82
2021/09/06 03:02:44;;;;;;;7.67;4.97;;;;;;;6.66;76.33;102486.58;1788135;80;21064;-83
2021/09/06 03:05:12;;;;;;;9.60;5.28;;;;;;;6.64;76.35;102490.39;1788277;79;20986;-83
2021/09/06 03:07:38;;;;;;;8.15;5.25;;;;;;;6.66;76.42;102494.43;1788414;80;21257;-84
2021/09/06 03:10:05;;;;;;;9.30;5.83;;;;;;;6.66;76.43;102491.41;1757901;80;21657;-83
2021/09/06 03:12:32;;;;;;;16.57;5.40;;;;;;;6.66;76.44;102490.09;1788573;80;21428;-83
2021/09/06 03:14:59;;;;;;;10.28;5.47;;;;;;;6.65;76.46;102490.91;1788426;80;21002;-84
2021/09/06 03:17:25;;;;;;;10.72;5.33;;;;;;;6.65;76.53;102484.37;1788358;79;21060;-82
2021/09/06 03:19:52;;;;;;;7.05;4.55;;;;;;;6.63;76.53;102484.67;1788187;80;21739;-82
2021/09/06 03:22:19;;;;;;;8.48;5.30;;;;;;;6.63;76.52;102486.39;1790789;79;21049;-82
2021/09/06 03:24:45;;;;;;;8.18;4.58;;;;;;;6.63;76.55;102481.16;1791497;80;21014;-84
2021/09/06 03:27:13;;;;;;;9.58;5.12;;;;;;;6.59;76.45;102479.62;1791638;80;20967;-84
2021/09/06 03:29:40;;;;;;;6.35;4.53;;;;;;;6.58;76.52;102477.80;1791449;80;21069;-82
2021/09/06 03:32:07;;;;;;;9.48;4.97;;;;;;;6.57;76.50;102479.02;1791034;79;21726;-82
2021/09/06 03:34:34;;;;;;;7.50;5.03;;;;;;;6.53;76.42;102476.59;1791387;80;20997;-81
2021/09/06 03:37:00;;;;;;;7.28;4.25;;;;;;;6.51;76.48;102470.31;1791095;80;21327;-82
2021/09/06 03:39:27;;;;;;;13.35;5.42;;;;;;;6.51;76.57;102469.42;1791243;79;21554;-82
2021/09/06 03:41:54;;;;;;;9.63;4.97;;;;;;;6.50;76.60;102476.37;1791123;80;21001;-81
2021/09/06 03:44:20;;;;;;;8.53;4.65;;;;;;;6.50;76.53;102472.86;1791141;78;22262;-81
2021/09/06 03:46:47;;;;;;;7.00;4.70;;;;;;;6.47;76.53;102471.33;1791041;78;21468;-81
2021/09/06 03:49:13;;;;;;;8.98;5.10;;;;;;;6.46;76.50;102476.03;1791198;80;21084;-81
2021/09/06 03:51:40;;;;;;;9.23;4.58;;;;;;;6.42;76.53;102474.53;1790842;80;21072;-81
2021/09/06 03:54:07;;;;;;;8.58;4.40;;;;;;;6.43;76.58;102470.20;1791153;80;21041;-81
2021/09/06 03:56:33;;;;;;;14.10;5.05;;;;;;;6.40;76.58;102474.83;1794748;79;21780;-83
2021/09/06 03:59:00;;;;;;;16.52;5.12;;;;;;;6.38;76.59;102476.44;1791331;79;21496;-82
2021/09/06 04:01:27;;;;;;;16.95;5.35;;;;;;;6.38;76.69;102474.20;1791312;80;21001;-81
2021/09/06 04:03:53;;;;;;;15.35;5.62;;;;;;;6.37;76.59;102464.14;1791303;78;21618;-83
2021/09/06 04:06:20;;;;;;;22.02;5.53;;;;;;;6.38;76.59;102470.27;1791454;80;20978;-81
2021/09/06 04:08:47;;;;;;;14.63;4.58;;;;;;;6.40;76.71;102468.30;1791263;80;21641;-81
2021/09/06 04:11:14;;;;;;;11.25;5.37;;;;;;;6.46;76.75;102464.27;1791075;80;20978;-81
2021/09/06 04:13:42;;;;;;;12.55;5.35;;;;;;;6.50;76.73;102461.98;1791145;79;21499;-80
2021/09/06 04:16:09;;;;;;;12.65;5.33;;;;;;;6.54;76.71;102464.41;1791318;80;20998;-81
2021/09/06 04:18:35;;;;;;;9.65;4.95;;;;;;;6.59;76.76;102466.95;1791509;80;21018;-81
2021/09/06 04:21:02;;;;;;;9.33;5.40;;;;;;;6.61;76.68;102463.63;1790901;79;22383;-88
2021/09/06 04:23:28;;;;;;;13.93;5.05;;;;;;;6.67;76.70;102460.52;1788498;80;21013;-84
2021/09/06 04:25:55;;;;;;;7.42;4.70;;;;;;;6.72;76.69;102463.06;1788725;80;20993;-84
2021/09/06 04:28:22;;;;;;;17.77;4.30;;;;;;;6.78;76.63;102460.84;1788480;80;21299;-86
2021/09/06 04:30:48;;;;;;;8.70;4.37;;;;;;;6.85;76.64;102455.64;1789025;80;21033;-87
2021/09/06 04:33:15;;;;;;;8.45;4.45;;;;;;;6.92;76.61;102449.98;1788977;80;22562;-83
2021/09/06 04:35:41;;;;;;;9.55;3.83;;;;;;;7.12;76.76;102460.91;1788277;80;21029;-82
2021/09/06 04:38:08;;;;;;;6.30;4.30;;;;;;;8.36;79.08;102460.96;1788364;80;21029;-81
2021/09/06 04:40:35;;;;;;;7.22;4.17;;;;;;;10.11;78.92;102453.09;1788293;80;21010;-81
2021/09/06 04:43:01;;;;;;;10.32;4.33;;;;;;;11.78;77.44;102452.33;1788216;80;21073;-81
2021/09/06 04:45:28;;;;;;;9.90;5.20;;;;;;;13.27;75.75;102439.52;1788048;80;21729;-82
2021/09/06 04:47:55;;;;;;;9.13;4.40;;;;;;;14.63;73.90;102444.34;1788121;80;21041;-82
2021/09/06 04:50:21;;;;;;;8.95;3.87;;;;;;;15.85;71.96;102443.95;1788409;80;20959;-84
2021/09/06 04:52:48;;;;;;;8.80;3.85;;;;;;;16.90;70.07;102443.40;1788362;80;21266;-88
2021/09/06 04:55:15;;;;;;;7.87;3.98;;;;;;;17.75;68.27;102440.11;1788834;80;20990;-87
2021/09/06 04:57:41;;;;;;;5.92;3.83;;;;;;;18.61;66.82;102442.36;1789017;80;21730;-89
2021/09/06 05:00:10;;;;;;;6.33;3.67;;;;;;;19.48;65.60;102435.39;1788740;80;21594;-85
2021/09/06 05:02:36;;;;;;;7.55;3.87;;;;;;;20.26;63.95;102439.16;1789039;80;21002;-88
2021/09/06 05:05:04;;;;;;;7.50;3.92;;;;;;;20.96;62.67;102442.12;1788928;80;21038;-85
2021/09/06 05:07:31;;;;;;;10.60;4.15;;;;;;;21.54;61.18;102441.72;1788568;80;21056;-87
2021/09/06 05:09:57;;;;;;;7.45;4.00;;;;;;;21.62;59.31;102439.08;1788860;80;21731;-89
2021/09/06 05:12:24;;;;;;;8.68;3.70;;;;;;;20.83;57.48;102438.89;1788247;80;21716;-89
2021/09/06 05:14:53;;;;;;;7.67;4.17;;;;;;;19.77;55.91;102446.55;1788346;80;21013;-90
2021/09/06 05:17:19;;;;;;;6.20;4.70;;;;;;;18.63;55.67;102449.95;1788119;80;21052;-88
2021/09/06 05:19:48;;;;;;;5.85;3.85;;;;;;;17.65;55.92;102446.11;1786778;80;21030;-85
2021/09/06 05:22:14;;;;;;;9.20;3.83;;;;;;;16.82;56.26;102447.63;1791241;80;21743;-84
2021/09/06 05:24:41;;;;;;;7.70;4.08;;;;;;;16.12;56.53;102453.16;1793777;80;21033;-87
2021/09/06 05:27:07;;;;;;;7.12;3.87;;;;;;;15.51;57.05;102461.45;1794471;80;21009;-85
2021/09/06 05:29:34;;;;;;;8.40;3.90;;;;;;;15.03;57.56;102459.86;1794777;80;21472;-85
2021/09/06 05:32:01;;;;;;;8.55;4.22;;;;;;;14.64;57.94;102461.63;1794691;80;21578;-85
2021/09/06 05:34:27;;;;;;;5.67;3.92;;;;;;;14.29;58.41;102466.93;1793873;79;21969;-83
2021/09/06 05:36:54;;;;;;;10.58;4.37;;;;;;;13.94;58.87;102463.41;1793491;80;21570;-83
2021/09/06 05:39:21;;;;;;;7.87;4.50;;;;;;;13.72;59.43;102469.63;1793882;79;21029;-83
2021/09/06 05:41:47;;;;;;;6.75;4.30;;;;;;;13.53;59.64;102468.00;1793832;79;21094;-83
2021/09/06 05:44:14;;;;;;;8.70;4.45;;;;;;;13.30;59.89;102468.75;1793883;80;21056;-83
2021/09/06 05:46:41;;;;;;;8.20;4.25;;;;;;;13.08;60.18;102465.19;1793898;79;21672;-85
2021/09/06 05:49:07;;;;;;;6.53;4.28;;;;;;;12.87;60.50;102466.52;1794436;80;21044;-85
2021/09/06 05:51:34;;;;;;;7.55;4.53;;;;;;;12.66;60.83;102468.23;1794724;80;21080;-85
2021/09/06 05:54:01;;;;;;;9.30;5.22;;;;;;;12.46;61.10;102469.55;1794158;80;21063;-85
2021/09/06 05:56:28;;;;;;;9.20;5.05;;;;;;;12.29;61.42;102470.12;1797694;78;21500;-84
2021/09/06 05:58:54;;;;;;;11.83;5.30;;;;;;;12.16;61.71;102467.75;1818793;78;22452;-86
2021/09/06 06:01:21;;;;;;;8.35;4.60;;;;;;;12.04;62.08;102473.38;1808375;78;21051;-85
2021/09/06 06:03:48;;;;;;;12.15;6.05;;;;;;;11.94;62.28;102473.80;1814255;78;21027;-85
2021/09/06 06:06:16;;;;;;;16.77;6.42;;;;;;;11.86;62.56;102471.66;1795300;78;21186;-85
2021/09/06 06:08:43;;;;;;;13.10;6.78;;;;;;;11.77;62.82;102467.27;1790941;78;21030;-85
2021/09/06 06:11:09;;;;;;;14.28;6.80;;;;;;;11.71;63.12;102469.58;1781427;78;21800;-85
2021/09/06 06:13:36;;;;;;;13.55;6.45;;;;;;;11.64;63.31;102465.77;1779680;80;20991;-86
2021/09/06 06:16:03;;;;;;;19.37;6.50;;;;;;;11.57;63.47;102465.40;1779910;80;21071;-86
2021/09/06 06:18:30;;;;;;;17.55;8.48;;;;;;;11.53;63.75;102464.34;1801991;78;21052;-86
2021/09/06 06:20:56;;;;;;;15.03;7.67;;;;;;;11.54;63.99;102458.22;1821631;78;21025;-86
2021/09/06 06:23:23;;;;;;;18.37;9.80;;;;;;;11.54;64.15;102458.22;1821229;78;22564;-85
2021/09/06 06:25:50;;;;;;;15.03;9.28;;;;;;;11.60;64.36;102460.25;1806887;78;21060;-87
2021/09/06 06:28:16;;;;;;;20.55;8.55;;;;;;;11.63;64.56;102462.62;1805404;78;21036;-87
2021/09/06 06:30:43;;;;;;;16.82;8.20;;;;;;;11.69;64.62;102459.38;1810490;79;21546;-85
2021/09/06 06:33:10;;;;;;;12.98;6.33;;;;;;;11.75;64.87;102462.72;1810376;78;21629;-86
2021/09/06 06:35:38;;;;;;;11.43;6.70;;;;;;;11.80;64.94;102458.58;1812437;78;21713;-87
2021/09/06 06:38:05;;;;;;;12.95;6.33;;;;;;;11.84;65.06;102458.81;1815646;79;21584;-86
2021/09/06 06:40:32;;;;;;;59.85;32.73;;;;;;;11.90;65.13;102459.94;1813377;78;21076;-86
2021/09/06 06:42:58;;;;;;;191.92;106.27;;;;;;;11.95;65.26;102462.39;1788394;80;21041;-86
2021/09/06 06:45:27;;;;;;;78.52;46.60;;;;;;;12.02;65.52;102464.06;1795560;79;21013;-86
2021/09/06 06:47:54;;;;;;;135.45;74.25;;;;;;;12.10;65.71;102460.87;1786434;80;21764;-86
2021/09/06 06:50:24;;;;;;;80.28;44.42;;;;;;;12.19;65.71;102461.30;1787350;80;21002;-87
2021/09/06 06:52:51;;;;;;;26.37;14.63;;;;;;;12.30;65.90;102457.41;1784201;79;21081;-87
2021/09/06 06:55:18;;;;;;;12.07;7.47;;;;;;;12.40;65.87;102464.90;1779781;80;21014;-87
2021/09/06 06:57:44;;;;;;;56.25;31.90;;;;;;;12.49;65.91;102455.17;1787682;80;21605;-86
2021/09/06 07:00:12;;;;;;;104.07;59.38;;;;;;;12.59;65.99;102457.41;1784489;79;22496;-87
2021/09/06 07:02:39;;;;;;;48.65;29.05;;;;;;;12.70;66.06;102461.81;1788689;80;21037;-88
2021/09/06 07:05:07;;;;;;;29.82;15.93;;;;;;;12.80;66.16;102455.19;1784451;79;21241;-88
2021/09/06 07:07:34;;;;;;;18.50;10.80;;;;;;;12.90;66.24;102457.83;1789165;78;21007;-87
2021/09/06 07:10:00;;;;;;;10.80;6.47;;;;;;;13.03;66.18;102460.16;1786466;78;21065;-87
2021/09/06 07:12:27;;;;;;;10.68;5.00;;;;;;;13.14;66.17;102461.94;1784447;79;21781;-85
2021/09/06 07:14:54;;;;;;;9.05;5.67;;;;;;;13.26;66.18;102467.72;1784366;80;21018;-85
2021/09/06 07:17:21;;;;;;;10.30;5.58;;;;;;;13.38;66.01;102460.34;1784572;80;21047;-86
2021/09/06 07:19:47;;;;;;;8.88;5.67;;;;;;;13.53;65.73;102465.35;1778952;79;21053;-85
2021/09/06 07:22:14;;;;;;;5.33;3.17;;;;;;;13.66;65.47;102464.50;1776723;80;21568;-86
2021/09/06 07:24:41;;;;;;;2.90;1.95;;;;;;;13.79;65.06;102465.06;1779272;79;21773;-85
2021/09/06 07:27:07;;;;;;;7.55;2.87;;;;;;;13.94;64.76;102464.73;1804538;78;21001;-86
2021/09/06 07:29:34;;;;;;;4.92;2.00;;;;;;;14.09;64.40;102462.20;1807166;78;20991;-86
2021/09/06 07:32:01;;;;;;;5.95;1.85;;;;;;;14.22;64.23;102464.46;1788642;80;21600;-86
2021/09/06 07:34:27;;;;;;;3.42;1.72;;;;;;;14.35;63.86;102466.72;1788659;80;21184;-86
2021/09/06 07:36:54;;;;;;;3.42;1.87;;;;;;;14.48;63.75;102459.23;1788371;80;22432;-86
2021/09/06 07:39:21;;;;;;;4.60;1.77;;;;;;;14.62;63.44;102462.40;1783940;80;21001;-86
2021/09/06 07:41:47;;;;;;;5.58;2.27;;;;;;;14.73;63.29;102463.68;1788779;80;21087;-86
2021/09/06 07:44:16;;;;;;;3.20;2.08;;;;;;;14.85;62.94;102463.23;1804193;78;21047;-87
2021/09/06 07:46:42;;;;;;;5.28;1.80;;;;;;;14.94;62.64;102463.13;1815910;79;21111;-88
2021/09/06 07:49:09;;;;;;;5.12;2.17;;;;;;;15.04;62.44;102458.14;1815364;79;21695;-84
2021/09/06 07:51:36;;;;;;;3.15;1.92;;;;;;;15.14;62.31;102462.45;1815291;79;21032;-85
2021/09/06 07:54:05;;;;;;;6.50;2.12;;;;;;;15.26;62.01;102463.31;1799338;78;21058;-85
2021/09/06 07:56:31;;;;;;;5.50;2.35;;;;;;;15.36;61.96;102463.18;1788641;79;21098;-84
2021/09/06 07:58:58;;;;;;;5.40;1.70;;;;;;;15.48;61.72;102462.23;1800891;79;21038;-85
2021/09/06 08:01:25;;;;;;;4.92;2.00;;;;;;;15.55;61.05;102463.34;1792149;79;21731;-85
2021/09/06 08:03:51;;;;;;;2.87;1.75;;;;;;;15.62;60.81;102466.67;1790981;78;21057;-85
2021/09/06 08:06:18;;;;;;;3.12;1.40;;;;;;;15.72;60.44;102460.78;1785725;79;21052;-85
2021/09/06 08:08:45;;;;;;;2.60;1.65;;;;;;;15.81;60.11;102461.98;1771298;80;21083;-84
2021/09/06 08:11:11;;;;;;;2.98;1.80;;;;;;;15.87;59.93;102463.05;1774255;80;21526;-84
2021/09/06 08:13:38;;;;;;;10.25;2.33;;;;;;;15.96;59.61;102469.08;1784309;80;22510;-85
2021/09/06 08:16:05;;;;;;;2.55;1.90;;;;;;;16.03;59.55;102467.49;1776234;80;21594;-85
2021/09/06 08:18:32;;;;;;;5.17;1.85;;;;;;;16.09;59.03;102460.63;1804021;78;21101;-85
2021/09/06 08:20:58;;;;;;;8.50;1.75;;;;;;;16.18;58.98;102460.41;1785893;79;21456;-84
2021/09/06 08:23:25;;;;;;;3.12;1.42;;;;;;;16.24;58.67;102460.17;1747762;80;21125;-84
2021/09/06 08:25:52;;;;;;;4.40;1.87;;;;;;;16.31;58.57;102455.92;1730691;82;21810;-85
2021/09/06 08:28:18;;;;;;;2.72;1.52;;;;;;;16.41;58.47;102454.02;1730613;82;21050;-86
2021/09/06 08:30:45;;;;;;;4.40;2.60;;;;;;;16.49;58.35;102456.44;1730647;82;21082;-87
2021/09/06 08:33:12;;;;;;;7.72;1.85;;;;;;;16.58;58.16;102457.58;1730851;82;21502;-85
2021/09/06 08:35:38;;;;;;;6.45;2.00;;;;;;;16.65;57.81;102460.87;1740270;81;21015;-86
2021/09/06 08:38:05;;;;;;;14.18;3.67;;;;;;;16.70;57.28;102457.89;1735457;81;21762;-86
2021/09/06 08:40:32;;;;;;;4.55;1.65;;;;;;;16.74;57.03;102463.75;1730716;82;21335;-88
2021/09/06 08:42:59;;;;;;;7.00;2.87;;;;;;;16.78;56.66;102455.03;1712848;82;21096;-87
2021/09/06 08:45:26;;;;;;;4.85;2.12;;;;;;;16.81;56.33;102456.42;1740555;81;21008;-86
2021/09/06 08:47:53;;;;;;;2.37;1.50;;;;;;;16.87;56.42;102451.32;1732791;82;21035;-86
2021/09/06 08:50:20;;;;;;;2.08;1.40;;;;;;;16.94;56.07;102451.03;1752472;81;21745;-87
2021/09/06 08:52:47;;;;;;;3.72;1.75;;;;;;;17.00;55.91;102443.64;1767641;80;21082;-86
2021/09/06 08:55:14;;;;;;;3.22;1.67;;;;;;;17.10;56.07;102436.38;1771558;79;22280;-86
2021/09/06 08:57:40;;;;;;;7.20;1.77;;;;;;;17.21;55.99;102441.94;1731007;81;21397;-85
2021/09/06 09:00:10;;;;;;;5.55;1.60;;;;;;;17.32;55.88;102444.43;1730035;82;21840;-84
2021/09/06 09:02:37;;;;;;;3.33;1.57;;;;;;;17.41;55.71;102441.11;1765620;79;21741;-84
2021/09/06 09:05:09;;;;;;;4.58;1.70;;;;;;;17.52;55.41;102438.70;1774763;80;21079;-84
2021/09/06 09:07:37;;;;;;;2.12;1.42;;;;;;;17.60;55.22;102434.44;1735931;81;21045;-84
2021/09/06 09:10:04;;;;;;;3.58;1.60;;;;;;;17.67;55.19;102437.27;1746295;81;21104;-85
2021/09/06 09:12:31;;;;;;;3.15;1.72;;;;;;;17.77;54.94;102440.15;1753121;81;21026;-88
2021/09/06 09:14:59;;;;;;;4.58;1.65;;;;;;;17.85;54.79;102436.84;1762278;80;21749;-87
2021/09/06 09:17:26;;;;;;;3.22;1.65;;;;;;;17.94;54.63;102438.78;1757690;81;21009;-87
2021/09/06 09:19:58;;;;;;;2.55;1.80;;;;;;;18.01;54.49;102435.83;1761961;81;21535;-85
2021/09/06 09:22:36;;;;;;;3.95;1.85;;;;;;;18.07;54.36;102430.61;1786967;79;21199;-86
2021/09/06 09:25:09;;;;;;;4.30;1.50;;;;;;;18.12;54.03;102431.62;1731249;80;21074;-85
2021/09/06 09:27:42;;;;;;;2.60;1.70;;;;;;;18.16;54.00;102428.59;1758986;80;22636;-87
2021/09/06 09:30:23;;;;;;;3.80;2.00;;;;;;;18.23;53.77;102430.52;1763453;81;21007;-86
2021/09/06 09:33:17;;;;;;;4.78;1.52;;;;;;;18.29;53.46;102431.96;1764469;81;21062;-89
2021/09/06 09:35:43;;;;;;;2.67;1.67;;;;;;;18.32;53.06;102426.70;1764121;79;21046;-88
2021/09/06 09:38:11;;;;;;;6.67;2.02;;;;;;;18.34;52.72;102420.04;1764550;81;21002;-87
2021/09/06 09:40:40;;;;;;;5.85;2.17;;;;;;;18.36;52.86;102429.00;1764543;81;21763;-88
2021/09/06 09:43:07;;;;;;;4.85;2.10;;;;;;;18.40;52.99;102422.41;1773608;80;21002;-87
2021/09/06 09:45:34;;;;;;;2.90;2.20;;;;;;;18.46;52.87;102416.30;1785542;80;21661;-87
2021/09/06 09:48:01;;;;;;;4.40;1.90;;;;;;;18.48;52.61;102416.33;1785511;79;21168;-87
2021/09/06 09:50:30;;;;;;;3.05;1.72;;;;;;;18.52;52.62;102416.84;1785710;80;21049;-87
2021/09/06 09:52:57;;;;;;;4.58;1.87;;;;;;;18.55;52.17;102421.80;1785591;80;21758;-88
2021/09/06 09:55:31;;;;;;;4.05;2.25;;;;;;;18.57;52.12;102417.39;1785329;80;21026;-87
2021/09/06 09:57:56;;;;;;;7.05;5.12;;;;;;;18.62;52.08;102416.16;1784403;80;21077;-87
2021/09/06 10:00:23;;;;;;;2.83;1.90;;;;;;;18.68;51.96;102415.38;1782653;80;21499;-85
2021/09/06 10:02:56;;;;;;;2.92;1.80;;;;;;;18.74;51.57;102418.14;1766035;80;21116;-85
2021/09/06 10:05:24;;;;;;;;;;;;;;;18.74;51.25;102410.14;1780014;80;21759;-87
2021/09/06 10:07:51;;;;;;;4.50;1.80;;;;;;;18.77;50.92;102416.44;1748483;80;20232;-91
2021/09/06 10:10:21;;;;;;;2.75;2.05;;;;;;;18.80;51.09;102415.58;1777711;80;21064;-89
2021/09/06 10:13:03;;;;;;;11.15;8.00;;;;;;;18.84;51.02;102413.05;1776974;80;21174;-86
2021/09/06 10:15:30;;;;;;;2.80;2.05;;;;;;;18.87;50.62;102408.63;1774584;80;21564;-86
2021/09/06 10:17:57;;;;;;;3.35;2.20;;;;;;;18.89;50.49;102405.55;1776424;80;21682;-86
2021/09/06 10:20:25;;;;;;;4.35;1.90;;;;;;;18.91;50.37;102406.47;1748162;80;21065;-87
2021/09/06 10:23:08;;;;;;;3.95;2.75;;;;;;;18.92;50.21;102405.58;1775595;79;21053;-87
2021/09/06 10:25:37;;;;;;;2.92;1.98;;;;;;;18.94;50.20;102407.83;1775352;79;21069;-85
2021/09/06 10:28:04;;;;;;;4.50;1.70;;;;;;;18.95;49.87;102412.31;1775872;79;21084;-86
2021/09/06 10:30:41;;;;;;;4.00;2.30;;;;;;;18.95;49.71;102404.30;1776295;79;21897;-86
2021/09/06 10:33:28;;;;;;;3.85;1.90;;;;;;;18.94;49.36;102406.50;1776821;80;21046;-86
2021/09/06 10:36:14;;;;;;;2.47;1.92;;;;;;;18.98;49.34;102403.03;1777374;79;21038;-86
2021/09/06 10:38:54;;;;;;;5.67;3.77;;;;;;;19.00;49.24;102402.17;1776674;80;21002;-86
2021/09/06 10:41:23;;;;;;;3.08;2.70;;;;;;;19.06;49.18;102404.49;1776128;80;21097;-85
2021/09/06 10:44:00;;;;;;;3.15;2.05;;;;;;;19.07;48.73;102400.52;1777198;80;21877;-85
2021/09/06 10:46:28;;;;;;;2.27;1.50;;;;;;;19.12;48.86;102404.58;1748614;80;21543;-86
2021/09/06 10:48:55;;;;;;;4.08;1.95;;;;;;;19.18;48.85;102397.58;1749286;80;21053;-86
2021/09/06 10:51:30;;;;;;;3.35;2.08;;;;;;;19.21;48.59;102397.61;1777276;80;21054;-85
2021/09/06 10:54:00;;;;;;;3.58;1.60;;;;;;;19.23;48.50;102394.97;1777297;80;21003;-85
2021/09/06 10:56:28;;;;;;;2.33;1.50;;;;;;;19.26;48.41;102393.70;1777366;79;21764;-85
2021/09/06 10:58:55;;;;;;;4.78;1.98;;;;;;;19.24;47.98;102399.45;1777219;79;21231;-85
2021/09/06 11:01:22;;;;;;;4.10;1.80;;;;;;;19.26;48.14;102391.44;1777390;79;21038;-85
2021/09/06 11:03:50;;;;;;;2.50;1.50;;;;;;;19.32;48.17;102390.22;1777093;80;21189;-85
2021/09/06 11:06:20;;;;;;;3.72;2.05;;;;;;;19.36;47.81;102392.94;1777241;80;21077;-85
2021/09/06 11:08:47;;;;;;;3.02;1.75;;;;;;;19.42;47.88;102389.02;1777148;79;21754;-85
2021/09/06 11:11:14;;;;;;;2.85;1.90;;;;;;;19.47;47.68;102388.21;1776878;80;21507;-85
2021/09/06 11:13:46;;;;;;;7.03;1.80;;;;;;;19.50;47.43;102386.48;1777172;79;21014;-85
2021/09/06 11:16:15;;;;;;;7.53;2.17;;;;;;;19.51;47.41;102390.05;1777168;80;21615;-85
2021/09/06 11:18:50;;;;;;;14.90;2.20;;;;;;;19.54;47.12;102388.73;1777227;80;21468;-85
2021/09/06 11:21:21;;;;;;;8.28;1.65;;;;;;;19.56;46.95;102390.57;1777094;80;22517;-85
2021/09/06 11:23:48;;;;;;;10.03;5.80;;;;;;;19.57;46.63;102391.02;1748100;81;21050;-85
2021/09/06 11:26:33;;;;;;;2.85;1.70;;;;;;;19.59;46.81;102394.59;1770005;81;21524;-85
2021/09/06 11:28:59;;;;;;;2.50;1.82;;;;;;;19.64;46.62;102388.00;1770355;80;21181;-86